sensor_id;sensor_type;location;lat;lon;timestamp;pressure;altitude;pressure_sealevel;temperature;humidity
16190;BME280;41754;51.498;7.540;2023-04-30T00:01:51;101036.63;;;8.70;64.11
16190;BME280;41754;51.498;7.540;2023-04-30T00:04:19;101027.25;;;8.76;63.53
16190;BME280;41754;51.498;7.540;2023-04-30T00:06:47;101033.72;;;8.15;66.45
16190;BME280;41754;51.498;7.540;2023-04-30T00:09:15;101036.19;;;8.12;67.67
16190;BME280;41754;51.498;7.540;2023-04-30T00:11:44;101035.41;;;8.06;69.00
16190;BME280;41754;51.498;7.540;2023-04-30T00:14:12;101038.97;;;7.97;69.64
16190;BME280;41754;51.498;7.540;2023-04-30T00:16:40;101040.06;;;7.85;70.60
16190;BME280;41754;51.498;7.540;2023-04-30T00:19:08;101034.53;;;8.26;69.52
16190;BME280;41754;51.498;7.540;2023-04-30T00:21:36;101033.94;;;8.39;68.39
16190;BME280;41754;51.498;7.540;2023-04-30T00:24:04;101030.06;;;8.66;66.37
16190;BME280;41754;51.498;7.540;2023-04-30T00:26:32;101027.81;;;8.83;64.58
16190;BME280;41754;51.498;7.540;2023-04-30T00:29:01;101031.72;;;8.57;65.42
16190;BME280;41754;51.498;7.540;2023-04-30T00:31:30;101031.69;;;8.62;65.51
16190;BME280;41754;51.498;7.540;2023-04-30T00:33:58;101031.66;;;8.72;64.83
16190;BME280;41754;51.498;7.540;2023-04-30T00:36:26;101039.38;;;8.60;65.34
16190;BME280;41754;51.498;7.540;2023-04-30T00:38:53;101047.69;;;8.24;67.07
16190;BME280;41754;51.498;7.540;2023-04-30T00:41:22;101051.56;;;7.87;69.00
16190;BME280;41754;51.498;7.540;2023-04-30T00:43:51;101048.25;;;8.31;68.08
16190;BME280;41754;51.498;7.540;2023-04-30T00:46:20;101042.16;;;8.55;66.35
16190;BME280;41754;51.498;7.540;2023-04-30T00:48:48;101050.19;;;7.85;68.17
16190;BME280;41754;51.498;7.540;2023-04-30T00:51:16;101039.97;;;8.46;66.00
16190;BME280;41754;51.498;7.540;2023-04-30T00:53:45;101043.34;;;8.18;66.85
16190;BME280;41754;51.498;7.540;2023-04-30T00:56:13;101036.41;;;8.41;66.34
16190;BME280;41754;51.498;7.540;2023-04-30T00:58:42;101043.88;;;8.10;67.63
16190;BME280;41754;51.498;7.540;2023-04-30T01:01:10;101049.38;;;7.74;68.46
16190;BME280;41754;51.498;7.540;2023-04-30T01:03:41;101040.06;;;7.96;67.31
16190;BME280;41754;51.498;7.540;2023-04-30T01:06:10;101051.00;;;8.16;66.39
16190;BME280;41754;51.498;7.540;2023-04-30T01:08:38;101046.06;;;8.13;67.05
16190;BME280;41754;51.498;7.540;2023-04-30T01:11:21;101042.81;;;7.85;66.80
16190;BME280;41754;51.498;7.540;2023-04-30T01:13:58;101051.03;;;7.55;67.95
16190;BME280;41754;51.498;7.540;2023-04-30T01:16:32;101039.78;;;7.46;69.52
16190;BME280;41754;51.498;7.540;2023-04-30T01:19:12;101043.63;;;7.61;70.13
16190;BME280;41754;51.498;7.540;2023-04-30T01:21:47;101037.34;;;7.80;68.64
16190;BME280;41754;51.498;7.540;2023-04-30T01:24:31;101035.69;;;7.84;67.77
16190;BME280;41754;51.498;7.540;2023-04-30T01:27:13;101040.88;;;7.45;69.04
16190;BME280;41754;51.498;7.540;2023-04-30T01:29:53;101043.38;;;7.67;68.39
16190;BME280;41754;51.498;7.540;2023-04-30T01:32:22;101036.50;;;7.59;68.15
16190;BME280;41754;51.498;7.540;2023-04-30T01:34:50;101043.03;;;7.38;69.10
16190;BME280;41754;51.498;7.540;2023-04-30T01:37:23;101042.25;;;7.43;68.68
16190;BME280;41754;51.498;7.540;2023-04-30T01:40:09;101039.22;;;7.44;68.14
16190;BME280;41754;51.498;7.540;2023-04-30T01:42:48;101044.41;;;7.31;70.32
16190;BME280;41754;51.498;7.540;2023-04-30T01:45:32;101045.50;;;7.29;70.71
16190;BME280;41754;51.498;7.540;2023-04-30T01:48:09;101050.94;;;7.24;71.17
16190;BME280;41754;51.498;7.540;2023-04-30T01:50:46;101055.25;;;7.15;72.24
16190;BME280;41754;51.498;7.540;2023-04-30T01:53:17;101053.13;;;7.27;71.36
16190;BME280;41754;51.498;7.540;2023-04-30T01:55:50;101056.47;;;7.35;70.73
16190;BME280;41754;51.498;7.540;2023-04-30T01:58:23;101062.44;;;7.21;70.97
16190;BME280;41754;51.498;7.540;2023-04-30T02:00:53;101058.53;;;7.07;70.14
16190;BME280;41754;51.498;7.540;2023-04-30T02:03:21;101053.41;;;7.26;70.54
16190;BME280;41754;51.498;7.540;2023-04-30T02:05:49;101055.09;;;7.37;69.93
16190;BME280;41754;51.498;7.540;2023-04-30T02:08:17;101052.03;;;7.28;69.94
16190;BME280;41754;51.498;7.540;2023-04-30T02:10:45;101053.84;;;7.02;70.40
16190;BME280;41754;51.498;7.540;2023-04-30T02:13:13;101055.22;;;7.00;70.64
16190;BME280;41754;51.498;7.540;2023-04-30T02:15:41;101053.34;;;7.16;69.97
16190;BME280;41754;51.498;7.540;2023-04-30T02:18:11;101052.00;;;7.18;69.20
16190;BME280;41754;51.498;7.540;2023-04-30T02:20:39;101052.41;;;6.80;70.09
16190;BME280;41754;51.498;7.540;2023-04-30T02:23:07;101063.88;;;6.71;71.02
16190;BME280;41754;51.498;7.540;2023-04-30T02:25:35;101051.16;;;7.08;69.40
16190;BME280;41754;51.498;7.540;2023-04-30T02:28:05;101059.56;;;6.86;69.69
16190;BME280;41754;51.498;7.540;2023-04-30T02:30:33;101058.94;;;6.74;71.12
16190;BME280;41754;51.498;7.540;2023-04-30T02:33:01;101060.66;;;6.90;70.20
16190;BME280;41754;51.498;7.540;2023-04-30T02:35:32;101065.06;;;7.01;69.84
16190;BME280;41754;51.498;7.540;2023-04-30T02:38:00;101066.88;;;6.70;70.47
16190;BME280;41754;51.498;7.540;2023-04-30T02:40:28;101070.97;;;6.73;71.28
16190;BME280;41754;51.498;7.540;2023-04-30T02:42:55;101069.34;;;6.71;71.04
16190;BME280;41754;51.498;7.540;2023-04-30T02:45:24;101069.56;;;6.65;71.59
16190;BME280;41754;51.498;7.540;2023-04-30T02:47:52;101059.50;;;6.76;71.20
16190;BME280;41754;51.498;7.540;2023-04-30T02:50:20;101066.34;;;6.73;71.03
16190;BME280;41754;51.498;7.540;2023-04-30T02:52:49;101059.75;;;6.69;71.24
16190;BME280;41754;51.498;7.540;2023-04-30T02:55:17;101061.41;;;6.70;71.03
16190;BME280;41754;51.498;7.540;2023-04-30T02:57:45;101061.13;;;6.71;71.18
16190;BME280;41754;51.498;7.540;2023-04-30T03:00:13;101054.84;;;6.76;71.09
16190;BME280;41754;51.498;7.540;2023-04-30T03:02:43;101069.56;;;6.60;70.98
16190;BME280;41754;51.498;7.540;2023-04-30T03:05:11;101061.88;;;6.57;71.42
16190;BME280;41754;51.498;7.540;2023-04-30T03:07:41;101060.53;;;6.59;70.80
16190;BME280;41754;51.498;7.540;2023-04-30T03:10:10;101062.72;;;6.62;71.03
16190;BME280;41754;51.498;7.540;2023-04-30T03:12:38;101069.00;;;6.58;71.87
16190;BME280;41754;51.498;7.540;2023-04-30T03:15:07;101058.88;;;6.58;71.46
16190;BME280;41754;51.498;7.540;2023-04-30T03:17:35;101065.72;;;6.56;71.90
16190;BME280;41754;51.498;7.540;2023-04-30T03:20:04;101059.22;;;6.25;71.94
16190;BME280;41754;51.498;7.540;2023-04-30T03:22:32;101056.69;;;6.60;71.54
16190;BME280;41754;51.498;7.540;2023-04-30T03:25:01;101061.00;;;6.46;71.00
16190;BME280;41754;51.498;7.540;2023-04-30T03:27:30;101063.97;;;6.39;71.92
16190;BME280;41754;51.498;7.540;2023-04-30T03:29:58;101064.03;;;6.07;72.81
16190;BME280;41754;51.498;7.540;2023-04-30T03:32:26;101068.84;;;6.32;72.51
16190;BME280;41754;51.498;7.540;2023-04-30T03:34:54;101066.41;;;6.36;71.73
16190;BME280;41754;51.498;7.540;2023-04-30T03:37:22;101065.66;;;6.46;71.53
16190;BME280;41754;51.498;7.540;2023-04-30T03:39:51;101063.19;;;6.44;71.29
16190;BME280;41754;51.498;7.540;2023-04-30T03:42:19;101065.44;;;6.57;70.00
16190;BME280;41754;51.498;7.540;2023-04-30T03:44:48;101057.13;;;6.37;71.88
16190;BME280;41754;51.498;7.540;2023-04-30T03:47:16;101059.16;;;6.57;70.97
16190;BME280;41754;51.498;7.540;2023-04-30T03:49:44;101062.50;;;6.27;71.95
16190;BME280;41754;51.498;7.540;2023-04-30T03:52:14;101054.56;;;6.20;73.08
16190;BME280;41754;51.498;7.540;2023-04-30T03:54:42;101060.88;;;5.89;74.75
16190;BME280;41754;51.498;7.540;2023-04-30T03:57:10;101060.50;;;6.12;74.23
16190;BME280;41754;51.498;7.540;2023-04-30T03:59:39;101061.84;;;6.09;73.90
16190;BME280;41754;51.498;7.540;2023-04-30T04:02:10;101061.84;;;6.09;73.62
16190;BME280;41754;51.498;7.540;2023-04-30T04:04:38;101064.59;;;6.09;73.62
16190;BME280;41754;51.498;7.540;2023-04-30T04:07:07;101065.69;;;6.13;73.71
16190;BME280;41754;51.498;7.540;2023-04-30T04:09:37;101069.13;;;6.36;72.96
16190;BME280;41754;51.498;7.540;2023-04-30T04:12:05;101065.59;;;6.35;72.05
16190;BME280;41754;51.498;7.540;2023-04-30T04:14:34;101069.00;;;6.16;73.14
16190;BME280;41754;51.498;7.540;2023-04-30T04:17:02;101063.03;;;6.24;73.10
16190;BME280;41754;51.498;7.540;2023-04-30T04:19:33;101064.81;;;6.45;71.66
16190;BME280;41754;51.498;7.540;2023-04-30T04:22:01;101070.84;;;6.47;71.11
16190;BME280;41754;51.498;7.540;2023-04-30T04:24:28;101070.34;;;6.55;71.17
16190;BME280;41754;51.498;7.540;2023-04-30T04:26:57;101079.88;;;6.48;71.10
16190;BME280;41754;51.498;7.540;2023-04-30T04:29:25;101086.16;;;6.48;71.53
16190;BME280;41754;51.498;7.540;2023-04-30T04:31:53;101081.44;;;6.38;71.50
16190;BME280;41754;51.498;7.540;2023-04-30T04:34:21;101077.56;;;6.77;71.28
16190;BME280;41754;51.498;7.540;2023-04-30T04:36:50;101078.81;;;6.54;70.40
16190;BME280;41754;51.498;7.540;2023-04-30T04:39:18;101068.25;;;6.78;70.20
16190;BME280;41754;51.498;7.540;2023-04-30T04:41:46;101078.22;;;6.99;69.18
16190;BME280;41754;51.498;7.540;2023-04-30T04:44:14;101083.50;;;6.63;68.94
16190;BME280;41754;51.498;7.540;2023-04-30T04:46:42;101082.22;;;6.76;68.91
16190;BME280;41754;51.498;7.540;2023-04-30T04:49:11;101085.00;;;6.91;69.07
16190;BME280;41754;51.498;7.540;2023-04-30T04:51:39;101083.69;;;7.04;68.82
16190;BME280;41754;51.498;7.540;2023-04-30T04:54:08;101082.97;;;7.24;68.01
16190;BME280;41754;51.498;7.540;2023-04-30T04:56:38;101087.00;;;7.16;67.52
16190;BME280;41754;51.498;7.540;2023-04-30T04:59:06;101085.81;;;6.92;68.06
16190;BME280;41754;51.498;7.540;2023-04-30T05:01:34;101083.63;;;6.84;69.73
16190;BME280;41754;51.498;7.540;2023-04-30T05:04:02;101083.94;;;6.97;69.99
16190;BME280;41754;51.498;7.540;2023-04-30T05:06:30;101085.22;;;7.52;68.15
16190;BME280;41754;51.498;7.540;2023-04-30T05:08:59;101088.25;;;7.61;67.73
16190;BME280;41754;51.498;7.540;2023-04-30T05:11:28;101089.31;;;7.40;68.11
16190;BME280;41754;51.498;7.540;2023-04-30T05:13:56;101091.84;;;7.97;67.73
16190;BME280;41754;51.498;7.540;2023-04-30T05:16:24;101085.00;;;8.20;67.77
16190;BME280;41754;51.498;7.540;2023-04-30T05:18:53;101087.19;;;7.98;68.26
16190;BME280;41754;51.498;7.540;2023-04-30T05:21:21;101095.97;;;8.10;68.66
16190;BME280;41754;51.498;7.540;2023-04-30T05:23:48;101092.66;;;8.28;69.09
16190;BME280;41754;51.498;7.540;2023-04-30T05:26:16;101089.94;;;8.13;70.52
16190;BME280;41754;51.498;7.540;2023-04-30T05:28:46;101088.84;;;8.04;70.94
16190;BME280;41754;51.498;7.540;2023-04-30T05:31:13;101090.38;;;8.81;69.44
16190;BME280;41754;51.498;7.540;2023-04-30T05:33:43;101089.88;;;8.48;69.66
16190;BME280;41754;51.498;7.540;2023-04-30T05:36:12;101090.88;;;8.78;68.69
16190;BME280;41754;51.498;7.540;2023-04-30T05:38:40;101099.97;;;8.84;69.45
16190;BME280;41754;51.498;7.540;2023-04-30T05:41:11;101101.31;;;8.76;68.43
16190;BME280;41754;51.498;7.540;2023-04-30T05:43:39;101108.41;;;9.02;67.82
16190;BME280;41754;51.498;7.540;2023-04-30T05:46:08;101101.72;;;9.29;66.93
16190;BME280;41754;51.498;7.540;2023-04-30T05:48:36;101108.75;;;9.45;67.09
16190;BME280;41754;51.498;7.540;2023-04-30T05:51:05;101109.47;;;9.61;66.59
16190;BME280;41754;51.498;7.540;2023-04-30T05:53:33;101105.06;;;9.65;65.75
16190;BME280;41754;51.498;7.540;2023-04-30T05:56:02;101103.22;;;9.50;65.68
16190;BME280;41754;51.498;7.540;2023-04-30T05:58:29;101098.94;;;9.78;65.58
16190;BME280;41754;51.498;7.540;2023-04-30T06:00:58;101103.44;;;9.98;64.18
16190;BME280;41754;51.498;7.540;2023-04-30T06:03:27;101109.53;;;9.95;64.98
16190;BME280;41754;51.498;7.540;2023-04-30T06:05:56;101100.75;;;9.93;64.77
16190;BME280;41754;51.498;7.540;2023-04-30T06:08:24;101110.28;;;10.40;63.67
16190;BME280;41754;51.498;7.540;2023-04-30T06:10:52;101104.38;;;10.22;63.42
16190;BME280;41754;51.498;7.540;2023-04-30T06:13:20;101107.72;;;9.75;63.88
16190;BME280;41754;51.498;7.540;2023-04-30T06:15:48;101104.25;;;9.99;64.37
16190;BME280;41754;51.498;7.540;2023-04-30T06:18:16;101108.91;;;10.66;62.32
16190;BME280;41754;51.498;7.540;2023-04-30T06:20:45;101107.59;;;10.59;62.83
16190;BME280;41754;51.498;7.540;2023-04-30T06:23:13;101109.84;;;10.80;62.10
16190;BME280;41754;51.498;7.540;2023-04-30T06:25:41;101107.94;;;11.00;60.78
16190;BME280;41754;51.498;7.540;2023-04-30T06:28:09;101104.47;;;11.13;60.94
16190;BME280;41754;51.498;7.540;2023-04-30T06:30:37;101106.03;;;11.00;61.34
16190;BME280;41754;51.498;7.540;2023-04-30T06:33:05;101105.03;;;11.15;60.02
16190;BME280;41754;51.498;7.540;2023-04-30T06:35:33;101103.00;;;11.02;60.15
16190;BME280;41754;51.498;7.540;2023-04-30T06:38:03;101102.53;;;11.14;59.66
16190;BME280;41754;51.498;7.540;2023-04-30T06:40:31;101106.66;;;11.16;59.02
16190;BME280;41754;51.498;7.540;2023-04-30T06:43:01;101100.44;;;11.29;59.05
16190;BME280;41754;51.498;7.540;2023-04-30T06:45:30;101093.25;;;11.90;57.22
16190;BME280;41754;51.498;7.540;2023-04-30T06:47:57;101096.16;;;12.45;56.03
16190;BME280;41754;51.498;7.540;2023-04-30T06:50:26;101097.22;;;11.65;57.34
16190;BME280;41754;51.498;7.540;2023-04-30T06:52:54;101089.19;;;12.01;56.66
16190;BME280;41754;51.498;7.540;2023-04-30T06:55:23;101081.59;;;11.93;56.93
16190;BME280;41754;51.498;7.540;2023-04-30T06:57:53;101086.19;;;11.65;56.77
16190;BME280;41754;51.498;7.540;2023-04-30T07:00:23;101088.78;;;12.08;56.00
16190;BME280;41754;51.498;7.540;2023-04-30T07:02:52;101086.66;;;12.05;55.79
16190;BME280;41754;51.498;7.540;2023-04-30T07:05:20;101093.56;;;12.35;55.64
16190;BME280;41754;51.498;7.540;2023-04-30T07:07:47;101088.47;;;12.42;54.64
16190;BME280;41754;51.498;7.540;2023-04-30T07:10:16;101088.97;;;12.90;54.76
16190;BME280;41754;51.498;7.540;2023-04-30T07:12:45;101093.56;;;12.67;55.32
16190;BME280;41754;51.498;7.540;2023-04-30T07:15:13;101099.06;;;12.21;55.28
16190;BME280;41754;51.498;7.540;2023-04-30T07:17:41;101093.69;;;12.90;53.86
16190;BME280;41754;51.498;7.540;2023-04-30T07:20:10;101086.38;;;13.21;53.31
16190;BME280;41754;51.498;7.540;2023-04-30T07:22:40;101083.34;;;13.45;52.06
16190;BME280;41754;51.498;7.540;2023-04-30T07:25:10;101084.94;;;13.24;52.79
16190;BME280;41754;51.498;7.540;2023-04-30T07:27:38;101083.91;;;13.20;53.10
16190;BME280;41754;51.498;7.540;2023-04-30T07:30:11;101077.81;;;13.45;53.38
16190;BME280;41754;51.498;7.540;2023-04-30T07:32:39;101079.72;;;13.72;52.73
16190;BME280;41754;51.498;7.540;2023-04-30T07:35:08;101084.66;;;12.84;54.26
16190;BME280;41754;51.498;7.540;2023-04-30T07:37:36;101084.81;;;13.79;52.28
16190;BME280;41754;51.498;7.540;2023-04-30T07:40:07;101087.28;;;13.30;51.22
16190;BME280;41754;51.498;7.540;2023-04-30T07:42:43;101084.13;;;13.73;52.70
16190;BME280;41754;51.498;7.540;2023-04-30T07:45:12;101082.84;;;13.43;52.49
16190;BME280;41754;51.498;7.540;2023-04-30T07:47:40;101081.81;;;12.89;53.14
16190;BME280;41754;51.498;7.540;2023-04-30T07:50:09;101075.88;;;13.45;52.29
16190;BME280;41754;51.498;7.540;2023-04-30T07:52:38;101085.81;;;13.83;51.60
16190;BME280;41754;51.498;7.540;2023-04-30T07:55:06;101082.88;;;13.79;51.35
16190;BME280;41754;51.498;7.540;2023-04-30T07:57:34;101079.41;;;13.60;51.44
16190;BME280;41754;51.498;7.540;2023-04-30T08:00:03;101088.09;;;13.81;51.16
16190;BME280;41754;51.498;7.540;2023-04-30T08:02:39;101078.66;;;14.04;50.46
16190;BME280;41754;51.498;7.540;2023-04-30T08:05:10;101086.78;;;14.00;50.90
16190;BME280;41754;51.498;7.540;2023-04-30T08:07:38;101083.44;;;13.90;50.53
16190;BME280;41754;51.498;7.540;2023-04-30T08:10:07;101080.63;;;14.35;49.44
16190;BME280;41754;51.498;7.540;2023-04-30T08:12:35;101090.66;;;14.75;48.54
16190;BME280;41754;51.498;7.540;2023-04-30T08:15:05;101086.56;;;13.97;49.67
16190;BME280;41754;51.498;7.540;2023-04-30T08:17:34;101084.91;;;14.41;50.33
16190;BME280;41754;51.498;7.540;2023-04-30T08:20:04;101087.06;;;15.32;49.04
16190;BME280;41754;51.498;7.540;2023-04-30T08:22:33;101088.66;;;15.15;49.42
16190;BME280;41754;51.498;7.540;2023-04-30T08:25:01;101086.31;;;14.92;49.45
16190;BME280;41754;51.498;7.540;2023-04-30T08:27:30;101081.81;;;15.13;49.46
16190;BME280;41754;51.498;7.540;2023-04-30T08:29:58;101085.41;;;15.22;48.51
16190;BME280;41754;51.498;7.540;2023-04-30T08:32:26;101080.50;;;14.71;50.30
16190;BME280;41754;51.498;7.540;2023-04-30T08:34:54;101081.41;;;14.88;50.14
16190;BME280;41754;51.498;7.540;2023-04-30T08:37:24;101087.28;;;14.96;49.44
16190;BME280;41754;51.498;7.540;2023-04-30T08:39:52;101086.97;;;14.88;49.85
16190;BME280;41754;51.498;7.540;2023-04-30T08:42:24;101086.41;;;15.43;49.03
16190;BME280;41754;51.498;7.540;2023-04-30T08:44:52;101086.59;;;14.81;49.86
16190;BME280;41754;51.498;7.540;2023-04-30T08:47:21;101084.47;;;15.53;48.81
16190;BME280;41754;51.498;7.540;2023-04-30T08:49:50;101087.72;;;15.37;47.26
16190;BME280;41754;51.498;7.540;2023-04-30T08:52:20;101078.56;;;15.28;48.16
16190;BME280;41754;51.498;7.540;2023-04-30T08:54:51;101090.41;;;15.77;47.84
16190;BME280;41754;51.498;7.540;2023-04-30T08:57:19;101091.81;;;15.40;48.75
16190;BME280;41754;51.498;7.540;2023-04-30T08:59:47;101088.91;;;15.71;48.65
16190;BME280;41754;51.498;7.540;2023-04-30T09:02:15;101093.47;;;15.93;47.27
16190;BME280;41754;51.498;7.540;2023-04-30T09:04:43;101090.53;;;15.63;47.25
16190;BME280;41754;51.498;7.540;2023-04-30T09:07:12;101089.72;;;15.63;47.80
16190;BME280;41754;51.498;7.540;2023-04-30T09:09:40;101084.41;;;14.39;49.02
16190;BME280;41754;51.498;7.540;2023-04-30T09:12:14;101093.28;;;15.37;49.03
16190;BME280;41754;51.498;7.540;2023-04-30T09:14:58;101083.81;;;15.38;47.99
16190;BME280;41754;51.498;7.540;2023-04-30T09:17:27;101086.72;;;16.37;46.08
16190;BME280;41754;51.498;7.540;2023-04-30T09:20:05;101079.59;;;15.84;46.28
16190;BME280;41754;51.498;7.540;2023-04-30T09:22:34;101083.59;;;16.47;46.54
16190;BME280;41754;51.498;7.540;2023-04-30T09:25:03;101083.25;;;16.57;45.72
16190;BME280;41754;51.498;7.540;2023-04-30T09:27:33;101078.13;;;17.06;45.27
16190;BME280;41754;51.498;7.540;2023-04-30T09:30:01;101074.19;;;16.78;45.00
16190;BME280;41754;51.498;7.540;2023-04-30T09:32:30;101069.25;;;16.28;44.47
16190;BME280;41754;51.498;7.540;2023-04-30T09:34:58;101075.06;;;15.88;44.97
16190;BME280;41754;51.498;7.540;2023-04-30T09:37:35;101071.06;;;16.79;43.75
16190;BME280;41754;51.498;7.540;2023-04-30T09:40:03;101071.44;;;16.69;43.76
16190;BME280;41754;51.498;7.540;2023-04-30T09:42:33;101073.53;;;17.10;43.11
16190;BME280;41754;51.498;7.540;2023-04-30T09:45:03;101064.78;;;16.61;43.51
16190;BME280;41754;51.498;7.540;2023-04-30T09:47:32;101062.38;;;16.81;42.69
16190;BME280;41754;51.498;7.540;2023-04-30T09:50:00;101074.00;;;17.12;42.68
16190;BME280;41754;51.498;7.540;2023-04-30T09:52:28;101073.13;;;17.20;42.82
16190;BME280;41754;51.498;7.540;2023-04-30T09:54:57;101075.59;;;16.84;43.38
16190;BME280;41754;51.498;7.540;2023-04-30T09:57:26;101061.66;;;17.72;41.86
16190;BME280;41754;51.498;7.540;2023-04-30T09:59:59;101062.06;;;17.62;44.09
16190;BME280;41754;51.498;7.540;2023-04-30T10:02:35;101062.06;;;17.12;41.84
16190;BME280;41754;51.498;7.540;2023-04-30T10:05:05;101054.53;;;17.42;40.81
16190;BME280;41754;51.498;7.540;2023-04-30T10:07:35;101050.19;;;17.74;41.77
16190;BME280;41754;51.498;7.540;2023-04-30T10:10:07;101054.59;;;17.75;40.83
16190;BME280;41754;51.498;7.540;2023-04-30T10:12:38;101047.78;;;16.63;40.73
16190;BME280;41754;51.498;7.540;2023-04-30T10:15:14;101050.31;;;17.06;40.55
16190;BME280;41754;51.498;7.540;2023-04-30T10:17:45;101053.00;;;17.23;42.45
16190;BME280;41754;51.498;7.540;2023-04-30T10:20:16;101045.81;;;17.22;42.18
16190;BME280;41754;51.498;7.540;2023-04-30T10:22:46;101038.06;;;17.91;40.89
16190;BME280;41754;51.498;7.540;2023-04-30T10:25:16;101032.25;;;17.42;42.37
16190;BME280;41754;51.498;7.540;2023-04-30T10:27:46;101039.34;;;17.60;40.31
16190;BME280;41754;51.498;7.540;2023-04-30T10:30:15;101031.50;;;18.07;40.14
16190;BME280;41754;51.498;7.540;2023-04-30T10:32:55;101033.19;;;17.88;40.03
16190;BME280;41754;51.498;7.540;2023-04-30T10:35:28;101036.25;;;18.07;39.63
16190;BME280;41754;51.498;7.540;2023-04-30T10:38:03;101034.13;;;17.92;40.33
16190;BME280;41754;51.498;7.540;2023-04-30T10:40:35;101034.75;;;18.79;38.80
16190;BME280;41754;51.498;7.540;2023-04-30T10:43:04;101023.25;;;17.99;39.80
16190;BME280;41754;51.498;7.540;2023-04-30T10:45:38;101025.69;;;18.70;40.67
16190;BME280;41754;51.498;7.540;2023-04-30T10:48:09;101013.59;;;18.29;39.89
16190;BME280;41754;51.498;7.540;2023-04-30T10:50:39;101019.06;;;19.23;38.88
16190;BME280;41754;51.498;7.540;2023-04-30T10:53:12;101012.34;;;20.08;37.97
16190;BME280;41754;51.498;7.540;2023-04-30T10:55:46;101010.66;;;21.72;35.95
16190;BME280;41754;51.498;7.540;2023-04-30T10:58:26;101013.13;;;22.39;34.86
16190;BME280;41754;51.498;7.540;2023-04-30T11:01:03;101002.09;;;22.72;34.38
16190;BME280;41754;51.498;7.540;2023-04-30T11:03:33;101006.59;;;20.96;33.55
16190;BME280;41754;51.498;7.540;2023-04-30T11:06:07;100998.09;;;22.28;32.22
16190;BME280;41754;51.498;7.540;2023-04-30T11:08:36;100996.41;;;23.82;30.01
16190;BME280;41754;51.498;7.540;2023-04-30T11:11:04;100988.84;;;21.62;32.31
16190;BME280;41754;51.498;7.540;2023-04-30T11:13:39;100986.69;;;22.63;31.69
16190;BME280;41754;51.498;7.540;2023-04-30T11:16:09;100996.38;;;21.58;32.46
16190;BME280;41754;51.498;7.540;2023-04-30T11:18:42;100992.09;;;23.01;30.80
16190;BME280;41754;51.498;7.540;2023-04-30T11:21:10;100987.63;;;23.90;29.94
16190;BME280;41754;51.498;7.540;2023-04-30T11:23:40;100988.81;;;24.27;28.96
16190;BME280;41754;51.498;7.540;2023-04-30T11:26:09;100978.66;;;24.11;29.55
16190;BME280;41754;51.498;7.540;2023-04-30T11:28:37;100973.81;;;23.41;31.58
16190;BME280;41754;51.498;7.540;2023-04-30T11:31:05;100980.47;;;23.97;30.79
16190;BME280;41754;51.498;7.540;2023-04-30T11:33:35;100970.34;;;24.70;30.77
16190;BME280;41754;51.498;7.540;2023-04-30T11:36:03;100976.19;;;24.50;29.01
16190;BME280;41754;51.498;7.540;2023-04-30T11:38:34;100972.34;;;22.68;30.29
16190;BME280;41754;51.498;7.540;2023-04-30T11:41:03;100975.44;;;21.71;30.79
16190;BME280;41754;51.498;7.540;2023-04-30T11:43:32;100967.88;;;23.46;28.05
16190;BME280;41754;51.498;7.540;2023-04-30T11:46:09;100963.66;;;24.92;28.29
16190;BME280;41754;51.498;7.540;2023-04-30T11:48:40;100965.59;;;25.54;26.64
16190;BME280;41754;51.498;7.540;2023-04-30T11:51:15;100963.16;;;24.79;27.62
16190;BME280;41754;51.498;7.540;2023-04-30T11:53:45;100960.66;;;25.36;27.37
16190;BME280;41754;51.498;7.540;2023-04-30T11:56:17;100950.38;;;24.93;27.51
16190;BME280;41754;51.498;7.540;2023-04-30T11:58:46;100952.78;;;26.95;24.84
16190;BME280;41754;51.498;7.540;2023-04-30T12:01:15;100956.06;;;26.12;25.55
16190;BME280;41754;51.498;7.540;2023-04-30T12:03:47;100956.00;;;26.97;25.10
16190;BME280;41754;51.498;7.540;2023-04-30T12:06:20;100945.94;;;26.86;23.74
16190;BME280;41754;51.498;7.540;2023-04-30T12:08:51;100949.19;;;26.84;25.45
16190;BME280;41754;51.498;7.540;2023-04-30T12:11:20;100953.25;;;26.40;26.02
16190;BME280;41754;51.498;7.540;2023-04-30T12:13:52;100947.53;;;27.95;24.33
16190;BME280;41754;51.498;7.540;2023-04-30T12:16:20;100950.63;;;27.42;23.41
16190;BME280;41754;51.498;7.540;2023-04-30T12:18:49;100936.50;;;27.38;23.13
16190;BME280;41754;51.498;7.540;2023-04-30T12:21:21;100946.91;;;27.66;23.97
16190;BME280;41754;51.498;7.540;2023-04-30T12:23:49;100940.16;;;28.57;23.37
16190;BME280;41754;51.498;7.540;2023-04-30T12:26:17;100937.81;;;28.93;21.46
16190;BME280;41754;51.498;7.540;2023-04-30T12:28:46;100937.47;;;27.91;25.00
16190;BME280;41754;51.498;7.540;2023-04-30T12:31:16;100934.22;;;28.44;23.28
16190;BME280;41754;51.498;7.540;2023-04-30T12:33:54;100925.03;;;28.33;23.17
16190;BME280;41754;51.498;7.540;2023-04-30T12:36:28;100930.22;;;29.17;22.36
16190;BME280;41754;51.498;7.540;2023-04-30T12:39:08;100932.25;;;28.82;21.80
16190;BME280;41754;51.498;7.540;2023-04-30T12:41:38;100924.59;;;30.75;20.88
16190;BME280;41754;51.498;7.540;2023-04-30T12:44:18;100925.59;;;29.64;20.49
16190;BME280;41754;51.498;7.540;2023-04-30T12:46:47;100928.63;;;29.16;21.27
16190;BME280;41754;51.498;7.540;2023-04-30T12:49:24;100923.44;;;28.70;23.83
16190;BME280;41754;51.498;7.540;2023-04-30T12:51:58;100930.72;;;28.74;21.87
16190;BME280;41754;51.498;7.540;2023-04-30T12:54:27;100919.16;;;30.61;20.79
16190;BME280;41754;51.498;7.540;2023-04-30T12:56:57;100911.84;;;29.63;20.65
16190;BME280;41754;51.498;7.540;2023-04-30T12:59:27;100917.97;;;29.27;21.07
16190;BME280;41754;51.498;7.540;2023-04-30T13:01:55;100910.91;;;28.30;23.23
16190;BME280;41754;51.498;7.540;2023-04-30T13:04:33;100907.03;;;30.10;19.95
16190;BME280;41754;51.498;7.540;2023-04-30T13:07:01;100904.63;;;30.09;22.04
16190;BME280;41754;51.498;7.540;2023-04-30T13:09:31;100902.88;;;30.18;20.67